EFW79YW EGKK-LEIB
Flight info
| Callsign | EFW79YW |
|---|---|
| Flight time | 1h 56m |
| Altitude | 37000 |
| Route | BOGNA L612 BENBO UY47 DRAKE L151 SITET UN859 SOPIL DCT BALAN DCT EVPOK DCT NARAK DCT GAI DCT LOMRA DCT ROCAN DCT PUMAL N859 BCN Z174 CORDA |
| Aircraft | A320/M-SDE3FGHIRWY/LB1 |
Departure
| Time | 2026-04-18 08:28 |
|---|---|
| Airport | London Gatwick Airport (EGKK) |
Arrival
| Time | 2026-04-18 10:25 |
|---|---|
| Airport | Ibiza Airport (LEIB) |
| Time | Latitude | Longitude | Altitude | Speed | Heading |
|---|---|---|---|---|---|
| 2026-04-18 07:51 | 51.15470 | -0.17091 | 212 ft | 0 kts | 348° |
| 2026-04-18 07:52 | 51.15472 | -0.17091 | 205 ft | 0 kts | 348° |
| 2026-04-18 08:20 | 51.15470 | -0.17091 | 205 ft | 1 kts | 348° |
| 2026-04-18 08:20 | 51.15453 | -0.17084 | 217 ft | 3 kts | 346° |
| 2026-04-18 08:20 | 51.15434 | -0.17078 | 209 ft | 3 kts | 4° |
| 2026-04-18 08:21 | 51.15420 | -0.17084 | 217 ft | 2 kts | 58° |
| 2026-04-18 08:21 | 51.15412 | -0.17107 | 210 ft | 3 kts | 67° |
| 2026-04-18 08:21 | 51.15405 | -0.17136 | 217 ft | 3 kts | 70° |
| 2026-04-18 08:21 | 51.15402 | -0.17148 | 217 ft | 0 kts | 69° |
| 2026-04-18 08:24 | 51.15403 | -0.17146 | 205 ft | 1 kts | 69° |
| 2026-04-18 08:24 | 51.15416 | -0.17076 | 205 ft | 13 kts | 77° |
| 2026-04-18 08:25 | 51.15441 | -0.16895 | 205 ft | 18 kts | 77° |
| 2026-04-18 08:25 | 51.15425 | -0.16728 | 208 ft | 16 kts | 157° |
| 2026-04-18 08:25 | 51.15313 | -0.16681 | 208 ft | 18 kts | 164° |
| 2026-04-18 08:25 | 51.15240 | -0.16652 | 208 ft | 0 kts | 168° |
| 2026-04-18 08:26 | 51.15236 | -0.16651 | 210 ft | 3 kts | 168° |
| 2026-04-18 08:26 | 51.15169 | -0.16641 | 205 ft | 13 kts | 191° |
| 2026-04-18 08:27 | 51.15129 | -0.16755 | 216 ft | 13 kts | 258° |
| 2026-04-18 08:27 | 51.15088 | -0.17065 | 213 ft | 59 kts | 258° |
| 2026-04-18 08:27 | 51.14954 | -0.18022 | 216 ft | 116 kts | 257° |
| 2026-04-18 08:27 | 51.14753 | -0.19494 | 226 ft | 156 kts | 258° |
| 2026-04-18 08:28 | 51.14517 | -0.21168 | 789 ft | 153 kts | 258° |
| 2026-04-18 08:28 | 51.14274 | -0.22837 | 1366 ft | 159 kts | 260° |
| 2026-04-18 08:28 | 51.14026 | -0.24614 | 1702 ft | 174 kts | 260° |
| 2026-04-18 08:28 | 51.13747 | -0.26660 | 1997 ft | 198 kts | 260° |
| 2026-04-18 08:29 | 51.13445 | -0.28858 | 2380 ft | 214 kts | 260° |
| 2026-04-18 08:29 | 51.13117 | -0.31226 | 3203 ft | 217 kts | 259° |
| 2026-04-18 08:29 | 51.12796 | -0.33538 | 4038 ft | 217 kts | 259° |
| 2026-04-18 08:29 | 51.12470 | -0.35890 | 4909 ft | 217 kts | 258° |
| 2026-04-18 08:30 | 51.12141 | -0.38245 | 5781 ft | 218 kts | 257° |
| 2026-04-18 08:30 | 51.11585 | -0.40475 | 6608 ft | 221 kts | 233° |
| 2026-04-18 08:30 | 51.10326 | -0.41881 | 7378 ft | 230 kts | 200° |
| 2026-04-18 08:30 | 51.08698 | -0.42002 | 8142 ft | 239 kts | 181° |
| 2026-04-18 08:31 | 51.07026 | -0.41790 | 8818 ft | 249 kts | 180° |
| 2026-04-18 08:31 | 51.05222 | -0.41557 | 9178 ft | 270 kts | 180° |
| 2026-04-18 08:31 | 51.03323 | -0.41302 | 9846 ft | 277 kts | 180° |
| 2026-04-18 08:31 | 51.01387 | -0.41042 | 10569 ft | 281 kts | 180° |
| 2026-04-18 08:32 | 50.99428 | -0.40783 | 11306 ft | 283 kts | 180° |
| 2026-04-18 08:32 | 50.97460 | -0.40527 | 12055 ft | 285 kts | 181° |
| 2026-04-18 08:32 | 50.95479 | -0.40267 | 12800 ft | 287 kts | 181° |
| 2026-04-18 08:32 | 50.93485 | -0.40007 | 13538 ft | 288 kts | 181° |
| 2026-04-18 08:33 | 50.91479 | -0.39750 | 14243 ft | 290 kts | 182° |
| 2026-04-18 08:33 | 50.89454 | -0.39492 | 14871 ft | 293 kts | 182° |
| 2026-04-18 08:33 | 50.87409 | -0.39234 | 15457 ft | 296 kts | 182° |
| 2026-04-18 08:33 | 50.85340 | -0.38972 | 16055 ft | 301 kts | 180° |
| 2026-04-18 08:34 | 50.83260 | -0.38252 | 16660 ft | 313 kts | 167° |
| 2026-04-18 08:34 | 50.81308 | -0.36706 | 17235 ft | 325 kts | 153° |
| 2026-04-18 08:34 | 50.79403 | -0.34721 | 17840 ft | 328 kts | 153° |
| 2026-04-18 08:34 | 50.77488 | -0.32728 | 18429 ft | 331 kts | 153° |
| 2026-04-18 08:35 | 50.75554 | -0.30717 | 18960 ft | 334 kts | 153° |
| 2026-04-18 08:35 | 50.73602 | -0.28690 | 19477 ft | 337 kts | 154° |
| 2026-04-18 08:35 | 50.71630 | -0.26648 | 19998 ft | 340 kts | 154° |
| 2026-04-18 08:35 | 50.69637 | -0.24591 | 20497 ft | 344 kts | 154° |
| 2026-04-18 08:36 | 50.67575 | -0.22460 | 20627 ft | 360 kts | 153° |
| 2026-04-18 08:36 | 50.65452 | -0.20250 | 20762 ft | 375 kts | 153° |
| 2026-04-18 08:36 | 50.63234 | -0.17926 | 20868 ft | 389 kts | 152° |
| 2026-04-18 08:36 | 50.60952 | -0.15529 | 21158 ft | 399 kts | 152° |
| 2026-04-18 08:37 | 50.58635 | -0.13087 | 21618 ft | 403 kts | 152° |
| 2026-04-18 08:37 | 50.56291 | -0.10622 | 22112 ft | 406 kts | 153° |
| 2026-04-18 08:37 | 50.53929 | -0.08154 | 22587 ft | 409 kts | 153° |
| 2026-04-18 08:37 | 50.51547 | -0.05672 | 23064 ft | 412 kts | 153° |
| 2026-04-18 08:38 | 50.49104 | -0.03328 | 23528 ft | 410 kts | 160° |
| 2026-04-18 08:38 | 50.46443 | -0.01846 | 23966 ft | 400 kts | 175° |
| 2026-04-18 08:38 | 50.43714 | -0.01449 | 24356 ft | 394 kts | 185° |
| 2026-04-18 08:38 | 50.40969 | -0.01307 | 24741 ft | 395 kts | 185° |
| 2026-04-18 08:39 | 50.38218 | -0.01187 | 25162 ft | 396 kts | 186° |
| 2026-04-18 08:39 | 50.35467 | -0.01074 | 25568 ft | 397 kts | 186° |
| 2026-04-18 08:39 | 50.32697 | -0.00962 | 25968 ft | 398 kts | 186° |
| 2026-04-18 08:39 | 50.29922 | -0.00844 | 26360 ft | 400 kts | 186° |
| 2026-04-18 08:40 | 50.27136 | -0.00726 | 26737 ft | 401 kts | 186° |
| 2026-04-18 08:40 | 50.24345 | -0.00608 | 27123 ft | 402 kts | 186° |
| 2026-04-18 08:40 | 50.21538 | -0.00489 | 27506 ft | 403 kts | 187° |
| 2026-04-18 08:40 | 50.18732 | -0.00370 | 27850 ft | 405 kts | 187° |
| 2026-04-18 08:41 | 50.15910 | -0.00249 | 28220 ft | 406 kts | 187° |
| 2026-04-18 08:41 | 50.13083 | -0.00131 | 28583 ft | 407 kts | 187° |
| 2026-04-18 08:41 | 50.10236 | 0.00108 | 28933 ft | 415 kts | 181° |
| 2026-04-18 08:41 | 50.07365 | 0.01011 | 29278 ft | 425 kts | 175° |
| 2026-04-18 08:42 | 50.04495 | 0.02154 | 29617 ft | 427 kts | 175° |
| 2026-04-18 08:42 | 50.01628 | 0.03296 | 30095 ft | 425 kts | 175° |
| 2026-04-18 08:42 | 49.98768 | 0.04433 | 30553 ft | 423 kts | 175° |
| 2026-04-18 08:42 | 49.95959 | 0.05541 | 30893 ft | 422 kts | 175° |
| 2026-04-18 08:43 | 49.93105 | 0.06659 | 31250 ft | 423 kts | 175° |
| 2026-04-18 08:43 | 49.90206 | 0.07794 | 31624 ft | 423 kts | 175° |
| 2026-04-18 08:43 | 49.87393 | 0.08899 | 31994 ft | 423 kts | 175° |
| 2026-04-18 08:43 | 49.84539 | 0.10021 | 32377 ft | 423 kts | 175° |
| 2026-04-18 08:44 | 49.81691 | 0.11135 | 32760 ft | 422 kts | 175° |
| 2026-04-18 08:44 | 49.78837 | 0.12250 | 33140 ft | 422 kts | 175° |
| 2026-04-18 08:44 | 49.75992 | 0.13357 | 33520 ft | 422 kts | 175° |
| 2026-04-18 08:44 | 49.73141 | 0.14466 | 33869 ft | 422 kts | 175° |
| 2026-04-18 08:45 | 49.70297 | 0.15571 | 34259 ft | 421 kts | 175° |
| 2026-04-18 08:45 | 49.67457 | 0.16674 | 34584 ft | 421 kts | 174° |
| 2026-04-18 08:45 | 49.64608 | 0.17799 | 34876 ft | 422 kts | 174° |
| 2026-04-18 08:45 | 49.61763 | 0.18946 | 35150 ft | 423 kts | 174° |
| 2026-04-18 08:46 | 49.58916 | 0.20103 | 35427 ft | 423 kts | 173° |
| 2026-04-18 08:46 | 49.56066 | 0.21260 | 35682 ft | 423 kts | 173° |
| 2026-04-18 08:46 | 49.53219 | 0.22414 | 35942 ft | 424 kts | 173° |
| 2026-04-18 08:46 | 49.50364 | 0.23572 | 36172 ft | 424 kts | 173° |
| 2026-04-18 08:47 | 49.47512 | 0.24724 | 36429 ft | 424 kts | 173° |
| 2026-04-18 08:47 | 49.44650 | 0.25871 | 36640 ft | 424 kts | 173° |
| 2026-04-18 08:47 | 49.41792 | 0.27010 | 36873 ft | 424 kts | 173° |
| 2026-04-18 08:47 | 49.38931 | 0.28147 | 37122 ft | 425 kts | 173° |
| 2026-04-18 08:48 | 49.36098 | 0.29272 | 37230 ft | 426 kts | 173° |
| 2026-04-18 08:48 | 49.30285 | 0.31577 | 37230 ft | 435 kts | 172° |
| 2026-04-18 08:49 | 49.24415 | 0.34015 | 37250 ft | 438 kts | 171° |
| 2026-04-18 08:49 | 49.18529 | 0.36543 | 37246 ft | 438 kts | 171° |
| 2026-04-18 08:50 | 49.12646 | 0.39036 | 37248 ft | 438 kts | 172° |
| 2026-04-18 08:50 | 49.06752 | 0.41503 | 37217 ft | 438 kts | 172° |
| 2026-04-18 08:51 | 49.00902 | 0.43947 | 37228 ft | 439 kts | 171° |
| 2026-04-18 08:51 | 48.95011 | 0.46406 | 37231 ft | 439 kts | 171° |
| 2026-04-18 08:52 | 48.89121 | 0.48858 | 37238 ft | 439 kts | 172° |
| 2026-04-18 08:52 | 48.83225 | 0.51296 | 37248 ft | 439 kts | 172° |
| 2026-04-18 08:53 | 48.77325 | 0.53730 | 37248 ft | 439 kts | 172° |
| 2026-04-18 08:53 | 48.71417 | 0.56067 | 37247 ft | 438 kts | 172° |
| 2026-04-18 08:54 | 48.65493 | 0.58354 | 37248 ft | 438 kts | 172° |
| 2026-04-18 08:54 | 48.59585 | 0.60646 | 37219 ft | 439 kts | 172° |
| 2026-04-18 08:55 | 48.53713 | 0.62930 | 37222 ft | 439 kts | 172° |
| 2026-04-18 08:55 | 48.47794 | 0.65272 | 37228 ft | 440 kts | 172° |
| 2026-04-18 08:56 | 48.41874 | 0.67712 | 37206 ft | 441 kts | 171° |
| 2026-04-18 08:56 | 48.35956 | 0.70148 | 37205 ft | 441 kts | 172° |
| 2026-04-18 08:57 | 48.27054 | 0.73739 | 37213 ft | 442 kts | 172° |
| 2026-04-18 08:57 | 48.22119 | 0.75715 | 37187 ft | 442 kts | 172° |
| 2026-04-18 08:58 | 48.15145 | 0.78456 | 37197 ft | 443 kts | 172° |
| 2026-04-18 08:58 | 48.09208 | 0.80768 | 37204 ft | 444 kts | 172° |
| 2026-04-18 08:59 | 48.03238 | 0.83111 | 37206 ft | 444 kts | 172° |
| 2026-04-18 08:59 | 47.97246 | 0.85461 | 37185 ft | 445 kts | 172° |
| 2026-04-18 09:00 | 47.92273 | 0.87402 | 37202 ft | 445 kts | 172° |
| 2026-04-18 09:00 | 47.86278 | 0.89730 | 37210 ft | 445 kts | 172° |
| 2026-04-18 09:01 | 47.80278 | 0.92065 | 37212 ft | 445 kts | 172° |
| 2026-04-18 09:01 | 47.74287 | 0.94384 | 37196 ft | 444 kts | 172° |
| 2026-04-18 09:02 | 47.68346 | 0.96671 | 37206 ft | 444 kts | 172° |
| 2026-04-18 09:02 | 47.62383 | 0.98965 | 37207 ft | 443 kts | 172° |
| 2026-04-18 09:03 | 47.56412 | 1.01264 | 37195 ft | 443 kts | 171° |
| 2026-04-18 09:03 | 47.50438 | 1.03557 | 37204 ft | 442 kts | 171° |
| 2026-04-18 09:04 | 47.44474 | 1.05795 | 37198 ft | 440 kts | 175° |
| 2026-04-18 09:04 | 47.38519 | 1.06349 | 37203 ft | 429 kts | 187° |
| 2026-04-18 09:05 | 47.32550 | 1.06189 | 37190 ft | 429 kts | 186° |
| 2026-04-18 09:05 | 47.26577 | 1.06049 | 37202 ft | 429 kts | 186° |
| 2026-04-18 09:06 | 47.20609 | 1.05913 | 37211 ft | 429 kts | 186° |
| 2026-04-18 09:06 | 47.14641 | 1.05771 | 37193 ft | 428 kts | 186° |
| 2026-04-18 09:07 | 47.08675 | 1.05637 | 37206 ft | 428 kts | 186° |
| 2026-04-18 09:07 | 47.02714 | 1.05506 | 37215 ft | 428 kts | 186° |
| 2026-04-18 09:08 | 46.96761 | 1.05303 | 37216 ft | 427 kts | 187° |
| 2026-04-18 09:08 | 46.90851 | 1.05025 | 37207 ft | 427 kts | 187° |
| 2026-04-18 09:09 | 46.84904 | 1.04741 | 37210 ft | 427 kts | 187° |
| 2026-04-18 09:09 | 46.78950 | 1.04480 | 37213 ft | 428 kts | 187° |
| 2026-04-18 09:10 | 46.73000 | 1.04233 | 37215 ft | 428 kts | 187° |
| 2026-04-18 09:10 | 46.67036 | 1.03984 | 37221 ft | 428 kts | 187° |
| 2026-04-18 09:11 | 46.61119 | 1.03738 | 37227 ft | 428 kts | 187° |
| 2026-04-18 09:11 | 46.55154 | 1.03486 | 37208 ft | 428 kts | 187° |
| 2026-04-18 09:12 | 46.49173 | 1.04139 | 37214 ft | 438 kts | 172° |
| 2026-04-18 09:12 | 46.43228 | 1.06143 | 37219 ft | 439 kts | 172° |
| 2026-04-18 09:13 | 46.37273 | 1.08129 | 37223 ft | 439 kts | 173° |
| 2026-04-18 09:13 | 46.31307 | 1.10113 | 37217 ft | 439 kts | 172° |
| 2026-04-18 09:14 | 46.25344 | 1.12103 | 37225 ft | 439 kts | 173° |
| 2026-04-18 09:14 | 46.19419 | 1.14069 | 37229 ft | 440 kts | 173° |
| 2026-04-18 09:15 | 46.13453 | 1.16043 | 37221 ft | 440 kts | 173° |
| 2026-04-18 09:15 | 46.07488 | 1.18013 | 37234 ft | 439 kts | 173° |
| 2026-04-18 09:16 | 46.01523 | 1.19978 | 37226 ft | 440 kts | 173° |
| 2026-04-18 09:16 | 45.95556 | 1.21941 | 37210 ft | 440 kts | 172° |
| 2026-04-18 09:17 | 45.89583 | 1.23908 | 37217 ft | 440 kts | 172° |
| 2026-04-18 09:17 | 45.83605 | 1.25861 | 37225 ft | 440 kts | 173° |
| 2026-04-18 09:18 | 45.77674 | 1.27787 | 37232 ft | 440 kts | 173° |
| 2026-04-18 09:18 | 45.71696 | 1.29734 | 37225 ft | 440 kts | 172° |
| 2026-04-18 09:19 | 45.65723 | 1.31687 | 37224 ft | 441 kts | 172° |
| 2026-04-18 09:19 | 45.59735 | 1.33638 | 37227 ft | 441 kts | 173° |
| 2026-04-18 09:20 | 45.53750 | 1.35567 | 37228 ft | 441 kts | 172° |
| 2026-04-18 09:20 | 45.47762 | 1.37506 | 37226 ft | 441 kts | 172° |
| 2026-04-18 09:21 | 45.41773 | 1.39438 | 37230 ft | 441 kts | 172° |
| 2026-04-18 09:21 | 45.35792 | 1.41361 | 37225 ft | 441 kts | 172° |
| 2026-04-18 09:22 | 45.29810 | 1.43286 | 37228 ft | 440 kts | 172° |
| 2026-04-18 09:22 | 45.23871 | 1.45196 | 37229 ft | 440 kts | 172° |
| 2026-04-18 09:23 | 45.17889 | 1.47103 | 37217 ft | 440 kts | 172° |
| 2026-04-18 09:23 | 45.11908 | 1.49006 | 37224 ft | 440 kts | 172° |
| 2026-04-18 09:24 | 45.05933 | 1.50910 | 37229 ft | 440 kts | 172° |
| 2026-04-18 09:24 | 44.99951 | 1.52816 | 37227 ft | 440 kts | 172° |
| 2026-04-18 09:25 | 44.93979 | 1.54715 | 37210 ft | 441 kts | 172° |
| 2026-04-18 09:25 | 44.87983 | 1.56613 | 37211 ft | 441 kts | 172° |
| 2026-04-18 09:26 | 44.82019 | 1.58493 | 37215 ft | 442 kts | 172° |
| 2026-04-18 09:26 | 44.76015 | 1.60373 | 37221 ft | 442 kts | 172° |
| 2026-04-18 09:27 | 44.70005 | 1.62257 | 37225 ft | 442 kts | 172° |
| 2026-04-18 09:27 | 44.63992 | 1.64137 | 37229 ft | 442 kts | 172° |
| 2026-04-18 09:28 | 44.57987 | 1.66010 | 37213 ft | 442 kts | 171° |
| 2026-04-18 09:28 | 44.51980 | 1.67901 | 37220 ft | 443 kts | 171° |
| 2026-04-18 09:29 | 44.45970 | 1.69792 | 37226 ft | 443 kts | 171° |
| 2026-04-18 09:29 | 44.39934 | 1.71667 | 37213 ft | 443 kts | 171° |
| 2026-04-18 09:30 | 44.33946 | 1.73514 | 37224 ft | 443 kts | 171° |
| 2026-04-18 09:30 | 44.27914 | 1.75336 | 37228 ft | 443 kts | 173° |
| 2026-04-18 09:31 | 44.21845 | 1.76761 | 37227 ft | 441 kts | 175° |
| 2026-04-18 09:31 | 44.15757 | 1.77979 | 37231 ft | 442 kts | 175° |
| 2026-04-18 09:32 | 44.09672 | 1.79248 | 37243 ft | 443 kts | 175° |
| 2026-04-18 09:32 | 44.03586 | 1.80595 | 37243 ft | 443 kts | 174° |
| 2026-04-18 09:33 | 43.97500 | 1.81958 | 37241 ft | 443 kts | 174° |
| 2026-04-18 09:33 | 43.91431 | 1.83046 | 37240 ft | 441 kts | 179° |
| 2026-04-18 09:34 | 43.85307 | 1.83570 | 37254 ft | 441 kts | 181° |
| 2026-04-18 09:34 | 43.79173 | 1.83993 | 37250 ft | 441 kts | 180° |
| 2026-04-18 09:35 | 43.73038 | 1.84540 | 37253 ft | 442 kts | 179° |
| 2026-04-18 09:35 | 43.66901 | 1.85160 | 37257 ft | 442 kts | 179° |
| 2026-04-18 09:36 | 43.60745 | 1.85781 | 37248 ft | 443 kts | 179° |
| 2026-04-18 09:36 | 43.54596 | 1.86378 | 37252 ft | 443 kts | 180° |
| 2026-04-18 09:37 | 43.48449 | 1.86965 | 37251 ft | 443 kts | 179° |
| 2026-04-18 09:37 | 43.42338 | 1.87551 | 37254 ft | 443 kts | 179° |
| 2026-04-18 09:38 | 43.36189 | 1.88140 | 37235 ft | 443 kts | 180° |
| 2026-04-18 09:38 | 43.30031 | 1.88726 | 37238 ft | 443 kts | 180° |
| 2026-04-18 09:39 | 43.23869 | 1.89313 | 37237 ft | 443 kts | 180° |
| 2026-04-18 09:39 | 43.17714 | 1.89900 | 37230 ft | 443 kts | 180° |
| 2026-04-18 09:40 | 43.11553 | 1.90489 | 37233 ft | 443 kts | 180° |
| 2026-04-18 09:40 | 43.05389 | 1.91072 | 37234 ft | 444 kts | 179° |
| 2026-04-18 09:41 | 42.99252 | 1.91653 | 37213 ft | 444 kts | 179° |
| 2026-04-18 09:41 | 42.93080 | 1.92241 | 37220 ft | 444 kts | 179° |
| 2026-04-18 09:42 | 42.86914 | 1.92829 | 37223 ft | 444 kts | 179° |
| 2026-04-18 09:42 | 42.80743 | 1.93412 | 37221 ft | 444 kts | 180° |
| 2026-04-18 09:43 | 42.74607 | 1.93980 | 37225 ft | 444 kts | 179° |
| 2026-04-18 09:43 | 42.68435 | 1.94557 | 37224 ft | 444 kts | 179° |
| 2026-04-18 09:44 | 42.62279 | 1.95451 | 37224 ft | 446 kts | 175° |
| 2026-04-18 09:44 | 42.56142 | 1.96795 | 37219 ft | 447 kts | 174° |
| 2026-04-18 09:45 | 42.51047 | 1.97945 | 37216 ft | 447 kts | 174° |
| 2026-04-18 09:45 | 42.44894 | 1.99230 | 37212 ft | 447 kts | 175° |
| 2026-04-18 09:46 | 42.38738 | 2.00447 | 37203 ft | 447 kts | 175° |
| 2026-04-18 09:46 | 42.32567 | 2.01447 | 37202 ft | 446 kts | 179° |
| 2026-04-18 09:47 | 42.26416 | 2.01967 | 37206 ft | 445 kts | 180° |
| 2026-04-18 09:47 | 42.20227 | 2.02408 | 37205 ft | 445 kts | 180° |
| 2026-04-18 09:48 | 42.14033 | 2.02960 | 37193 ft | 446 kts | 179° |
| 2026-04-18 09:48 | 42.07846 | 2.03567 | 37199 ft | 446 kts | 179° |
| 2026-04-18 09:49 | 42.01657 | 2.04165 | 37201 ft | 446 kts | 179° |
| 2026-04-18 09:49 | 41.95458 | 2.04745 | 37188 ft | 446 kts | 179° |
| 2026-04-18 09:50 | 41.89308 | 2.05323 | 37192 ft | 446 kts | 179° |
| 2026-04-18 09:50 | 41.83119 | 2.05905 | 37197 ft | 445 kts | 179° |
| 2026-04-18 09:51 | 41.76938 | 2.06480 | 37199 ft | 445 kts | 179° |
| 2026-04-18 09:51 | 41.70756 | 2.07061 | 37190 ft | 445 kts | 179° |
| 2026-04-18 09:52 | 41.64577 | 2.07643 | 37191 ft | 445 kts | 179° |
| 2026-04-18 09:52 | 41.58383 | 2.08220 | 37194 ft | 445 kts | 179° |
| 2026-04-18 09:53 | 41.52238 | 2.08779 | 37190 ft | 445 kts | 179° |
| 2026-04-18 09:53 | 41.46047 | 2.09352 | 37191 ft | 446 kts | 179° |
| 2026-04-18 09:54 | 41.39851 | 2.09932 | 37197 ft | 446 kts | 179° |
| 2026-04-18 09:54 | 41.33660 | 2.10512 | 37200 ft | 446 kts | 179° |
| 2026-04-18 09:55 | 41.27462 | 2.11152 | 37198 ft | 448 kts | 176° |
| 2026-04-18 09:55 | 41.21278 | 2.12205 | 37208 ft | 448 kts | 174° |
| 2026-04-18 09:56 | 41.15089 | 2.13380 | 37207 ft | 448 kts | 175° |
| 2026-04-18 09:56 | 41.08898 | 2.14474 | 37194 ft | 448 kts | 175° |
| 2026-04-18 09:57 | 41.02741 | 2.15486 | 37197 ft | 449 kts | 176° |
| 2026-04-18 09:57 | 40.96543 | 2.16494 | 37204 ft | 449 kts | 175° |
| 2026-04-18 09:58 | 40.90338 | 2.17526 | 37207 ft | 449 kts | 175° |
| 2026-04-18 09:58 | 40.84130 | 2.18560 | 37197 ft | 449 kts | 175° |
| 2026-04-18 09:59 | 40.77924 | 2.19592 | 37201 ft | 449 kts | 175° |
| 2026-04-18 10:00 | 40.68642 | 2.21127 | 37208 ft | 450 kts | 175° |
| 2026-04-18 10:00 | 40.62421 | 2.22152 | 37208 ft | 450 kts | 175° |
| 2026-04-18 10:01 | 40.56214 | 2.23176 | 37211 ft | 450 kts | 175° |
| 2026-04-18 10:01 | 40.50008 | 2.24200 | 37210 ft | 449 kts | 175° |
| 2026-04-18 10:02 | 40.43797 | 2.25216 | 37083 ft | 450 kts | 175° |
| 2026-04-18 10:02 | 40.40696 | 2.25744 | 36812 ft | 449 kts | 174° |
| 2026-04-18 10:02 | 40.37606 | 2.26402 | 36202 ft | 451 kts | 172° |
| 2026-04-18 10:02 | 40.34515 | 2.27189 | 35485 ft | 453 kts | 171° |
| 2026-04-18 10:03 | 40.31417 | 2.28051 | 34724 ft | 456 kts | 170° |
| 2026-04-18 10:03 | 40.28301 | 2.28936 | 33858 ft | 460 kts | 170° |
| 2026-04-18 10:03 | 40.25159 | 2.29814 | 33067 ft | 461 kts | 171° |
| 2026-04-18 10:03 | 40.22044 | 2.30659 | 32625 ft | 453 kts | 171° |
| 2026-04-18 10:04 | 40.18969 | 2.31472 | 32093 ft | 449 kts | 171° |
| 2026-04-18 10:04 | 40.15914 | 2.32259 | 31559 ft | 446 kts | 171° |
| 2026-04-18 10:04 | 40.12878 | 2.33029 | 31033 ft | 442 kts | 171° |
| 2026-04-18 10:04 | 40.09873 | 2.33789 | 30507 ft | 439 kts | 171° |
| 2026-04-18 10:05 | 40.06875 | 2.34550 | 29941 ft | 436 kts | 171° |
| 2026-04-18 10:05 | 40.03917 | 2.35304 | 29413 ft | 431 kts | 171° |
| 2026-04-18 10:05 | 40.00983 | 2.36056 | 28909 ft | 427 kts | 171° |
| 2026-04-18 10:05 | 39.98077 | 2.36800 | 28404 ft | 423 kts | 171° |
| 2026-04-18 10:06 | 39.95204 | 2.37535 | 27918 ft | 419 kts | 170° |
| 2026-04-18 10:06 | 39.92353 | 2.38266 | 27431 ft | 415 kts | 170° |
| 2026-04-18 10:06 | 39.89528 | 2.38989 | 26957 ft | 412 kts | 170° |
| 2026-04-18 10:06 | 39.86757 | 2.39696 | 26496 ft | 410 kts | 170° |
| 2026-04-18 10:07 | 39.83929 | 2.40418 | 26045 ft | 407 kts | 170° |
| 2026-04-18 10:07 | 39.81191 | 2.41114 | 25608 ft | 405 kts | 170° |
| 2026-04-18 10:07 | 39.78424 | 2.41816 | 25166 ft | 404 kts | 170° |
| 2026-04-18 10:07 | 39.75655 | 2.42369 | 24735 ft | 401 kts | 177° |
| 2026-04-18 10:08 | 39.72873 | 2.42331 | 24303 ft | 399 kts | 187° |
| 2026-04-18 10:08 | 39.70116 | 2.41908 | 23775 ft | 400 kts | 188° |
| 2026-04-18 10:08 | 39.67375 | 2.41483 | 23165 ft | 390 kts | 187° |
| 2026-04-18 10:08 | 39.64695 | 2.41073 | 22739 ft | 386 kts | 187° |
| 2026-04-18 10:09 | 39.62033 | 2.40663 | 22295 ft | 384 kts | 187° |
| 2026-04-18 10:09 | 39.59401 | 2.40188 | 21830 ft | 381 kts | 193° |
| 2026-04-18 10:09 | 39.56898 | 2.39111 | 21375 ft | 377 kts | 206° |
| 2026-04-18 10:09 | 39.54660 | 2.37376 | 20908 ft | 374 kts | 219° |
| 2026-04-18 10:10 | 39.52782 | 2.35088 | 20443 ft | 370 kts | 231° |
| 2026-04-18 10:10 | 39.51293 | 2.32384 | 19981 ft | 367 kts | 238° |
| 2026-04-18 10:10 | 39.49901 | 2.29620 | 19509 ft | 366 kts | 238° |
| 2026-04-18 10:10 | 39.48506 | 2.26865 | 19042 ft | 365 kts | 238° |
| 2026-04-18 10:11 | 39.47112 | 2.24117 | 18566 ft | 365 kts | 238° |
| 2026-04-18 10:11 | 39.45717 | 2.21375 | 18047 ft | 364 kts | 238° |
| 2026-04-18 10:11 | 39.44328 | 2.18646 | 17569 ft | 362 kts | 238° |
| 2026-04-18 10:11 | 39.42945 | 2.15928 | 17096 ft | 360 kts | 238° |
| 2026-04-18 10:12 | 39.41571 | 2.13231 | 16621 ft | 359 kts | 238° |
| 2026-04-18 10:12 | 39.40201 | 2.10545 | 16151 ft | 357 kts | 237° |
| 2026-04-18 10:12 | 39.38837 | 2.07874 | 15681 ft | 356 kts | 237° |
| 2026-04-18 10:12 | 39.37488 | 2.05237 | 15214 ft | 355 kts | 237° |
| 2026-04-18 10:13 | 39.36112 | 2.02549 | 14737 ft | 354 kts | 237° |
| 2026-04-18 10:13 | 39.34759 | 1.99901 | 14264 ft | 353 kts | 237° |
| 2026-04-18 10:13 | 39.33408 | 1.97256 | 13775 ft | 352 kts | 237° |
| 2026-04-18 10:13 | 39.32060 | 1.94622 | 13291 ft | 350 kts | 237° |
| 2026-04-18 10:14 | 39.30717 | 1.92009 | 12824 ft | 348 kts | 237° |
| 2026-04-18 10:14 | 39.29381 | 1.89411 | 12366 ft | 346 kts | 237° |
| 2026-04-18 10:14 | 39.28055 | 1.86836 | 11907 ft | 343 kts | 237° |
| 2026-04-18 10:14 | 39.26750 | 1.84303 | 11460 ft | 341 kts | 237° |
| 2026-04-18 10:15 | 39.25443 | 1.81766 | 11145 ft | 335 kts | 237° |
| 2026-04-18 10:15 | 39.24175 | 1.79305 | 11025 ft | 323 kts | 237° |
| 2026-04-18 10:15 | 39.22949 | 1.76930 | 10897 ft | 313 kts | 237° |
| 2026-04-18 10:15 | 39.21586 | 1.74819 | 10776 ft | 303 kts | 217° |
| 2026-04-18 10:16 | 39.19698 | 1.73787 | 10654 ft | 292 kts | 185° |
| 2026-04-18 10:16 | 39.17753 | 1.74113 | 10532 ft | 278 kts | 154° |
| 2026-04-18 10:16 | 39.16062 | 1.75235 | 10178 ft | 273 kts | 149° |
| 2026-04-18 10:16 | 39.14375 | 1.76419 | 9446 ft | 279 kts | 149° |
| 2026-04-18 10:17 | 39.12682 | 1.77609 | 8958 ft | 274 kts | 150° |
| 2026-04-18 10:17 | 39.11012 | 1.78756 | 8552 ft | 271 kts | 150° |
| 2026-04-18 10:17 | 39.09360 | 1.79871 | 8169 ft | 266 kts | 150° |
| 2026-04-18 10:17 | 39.07661 | 1.80796 | 7796 ft | 267 kts | 170° |
| 2026-04-18 10:18 | 39.05852 | 1.80528 | 7518 ft | 265 kts | 205° |
| 2026-04-18 10:18 | 39.04492 | 1.79007 | 7273 ft | 259 kts | 240° |
| 2026-04-18 10:18 | 39.03716 | 1.76967 | 7043 ft | 255 kts | 245° |
| 2026-04-18 10:18 | 39.02927 | 1.74935 | 6806 ft | 253 kts | 243° |
| 2026-04-18 10:19 | 39.02112 | 1.72939 | 6568 ft | 251 kts | 242° |
| 2026-04-18 10:19 | 39.01278 | 1.70969 | 6314 ft | 250 kts | 242° |
| 2026-04-18 10:19 | 39.00434 | 1.69022 | 6034 ft | 248 kts | 239° |
| 2026-04-18 10:19 | 38.99575 | 1.67123 | 5641 ft | 245 kts | 241° |
| 2026-04-18 10:20 | 38.98766 | 1.65201 | 5165 ft | 243 kts | 242° |
| 2026-04-18 10:20 | 38.97984 | 1.63288 | 4683 ft | 241 kts | 242° |
| 2026-04-18 10:20 | 38.97194 | 1.61361 | 4077 ft | 249 kts | 242° |
| 2026-04-18 10:20 | 38.96376 | 1.59368 | 3550 ft | 250 kts | 242° |
| 2026-04-18 10:21 | 38.95577 | 1.57423 | 3223 ft | 245 kts | 242° |
| 2026-04-18 10:21 | 38.94789 | 1.55505 | 2885 ft | 238 kts | 242° |
| 2026-04-18 10:21 | 38.94037 | 1.53678 | 2578 ft | 224 kts | 241° |
| 2026-04-18 10:21 | 38.93331 | 1.51962 | 2295 ft | 211 kts | 241° |
| 2026-04-18 10:22 | 38.92675 | 1.50370 | 2060 ft | 196 kts | 241° |
| 2026-04-18 10:22 | 38.92059 | 1.48873 | 1770 ft | 182 kts | 240° |
| 2026-04-18 10:22 | 38.91498 | 1.47513 | 1556 ft | 165 kts | 240° |
| 2026-04-18 10:22 | 38.90974 | 1.46244 | 1315 ft | 152 kts | 241° |
| 2026-04-18 10:23 | 38.90494 | 1.45079 | 1128 ft | 144 kts | 241° |
| 2026-04-18 10:23 | 38.90031 | 1.43959 | 941 ft | 141 kts | 240° |
| 2026-04-18 10:23 | 38.89576 | 1.42859 | 767 ft | 138 kts | 240° |
| 2026-04-18 10:23 | 38.89132 | 1.41780 | 581 ft | 136 kts | 242° |
| 2026-04-18 10:24 | 38.88699 | 1.40713 | 409 ft | 136 kts | 241° |
| 2026-04-18 10:24 | 38.88252 | 1.39651 | 222 ft | 136 kts | 240° |
| 2026-04-18 10:24 | 38.87809 | 1.38586 | 47 ft | 135 kts | 242° |
| 2026-04-18 10:24 | 38.87439 | 1.37687 | 32 ft | 78 kts | 242° |
| 2026-04-18 10:25 | 38.87296 | 1.37339 | 31 ft | 30 kts | 243° |
| 2026-04-18 10:25 | 38.87259 | 1.37086 | 33 ft | 29 kts | 270° |
| 2026-04-18 10:25 | 38.87273 | 1.36878 | 37 ft | 15 kts | 298° |
| 2026-04-18 10:25 | 38.87358 | 1.36816 | 40 ft | 13 kts | 333° |
| 2026-04-18 10:26 | 38.87422 | 1.36779 | 43 ft | 6 kts | 357° |
| 2026-04-18 10:26 | 38.87450 | 1.36819 | 44 ft | 6 kts | 66° |
| 2026-04-18 10:26 | 38.87455 | 1.36832 | 44 ft | 1 kts | 64° |
| 2026-04-18 10:26 | 38.87475 | 1.36880 | 45 ft | 14 kts | 62° |
| 2026-04-18 10:27 | 38.87538 | 1.37035 | 46 ft | 22 kts | 62° |
| 2026-04-18 10:27 | 38.87610 | 1.37211 | 49 ft | 23 kts | 61° |
| 2026-04-18 10:27 | 38.87689 | 1.37400 | 50 ft | 25 kts | 62° |
| 2026-04-18 10:27 | 38.87636 | 1.37520 | 47 ft | 18 kts | 152° |
| 2026-04-18 10:28 | 38.87542 | 1.37486 | 44 ft | 20 kts | 244° |
| 2026-04-18 10:28 | 38.87474 | 1.37316 | 42 ft | 23 kts | 242° |
| 2026-04-18 10:28 | 38.87396 | 1.37127 | 40 ft | 25 kts | 243° |
| 2026-04-18 10:28 | 38.87311 | 1.36922 | 38 ft | 25 kts | 243° |
| 2026-04-18 10:29 | 38.87336 | 1.36831 | 39 ft | 12 kts | 330° |
| 2026-04-18 10:29 | 38.87412 | 1.36772 | 39 ft | 11 kts | 307° |
| 2026-04-18 10:29 | 38.87405 | 1.36703 | 42 ft | 3 kts | 276° |
| 2026-04-18 10:29 | 38.87428 | 1.36688 | 44 ft | 5 kts | 338° |
| 2026-04-18 10:30 | 38.87454 | 1.36674 | 44 ft | 3 kts | 345° |
| 2026-04-18 10:30 | 38.87464 | 1.36675 | 46 ft | 2 kts | 9° |
| 2026-04-18 10:30 | 38.87469 | 1.36676 | 46 ft | 0 kts | 10° |